Peekskill, New York
Current Conditions -  °F | °C
As of 10:45 PM on Tuesday 21 Oct 2014 (Local Time) from KSWF Reporting Station
Light Rain Light Rain  
Wind Chill: 11°   Ceiling: 900
Heat Index: 11°   Visibility: 6mi
Dew Point: 11°   Wind: 3mph
Humidity: 100%   Direction: NA
Pressure: 29.96"   Gusts: NA
Location:  41.29°N, 73.92°W
Report Text: KSWF 220245Z VRB03KT 6SM -RA BR OVC009 11/11 A2996
Loading
Personal Weather Stations






























Interactive Weather Map
Tropical Storm Tracking
New forecast layout! Learn more

10-Day Weather Forecast

Advertisements
Track Severe Weather on mobile